createdAt,value
2019-02-07T00:00:53.320Z,2.50
2019-02-07T00:05:10.138Z,5.43
2019-02-07T00:09:26.717Z,5.73
2019-02-07T00:13:43.208Z,1.70
2019-02-07T00:17:59.866Z,1.90
2019-02-07T00:22:16.278Z,2.53
2019-02-07T00:26:32.995Z,2.70
2019-02-07T00:30:49.724Z,4.07
2019-02-07T00:35:08.631Z,2.93
2019-02-07T00:39:25.034Z,2.57
2019-02-07T00:43:41.768Z,1.70
2019-02-07T00:47:58.367Z,2.43
2019-02-07T00:52:14.791Z,2.60
2019-02-07T00:56:31.481Z,2.40
2019-02-07T01:00:47.912Z,2.37
2019-02-07T01:05:07.758Z,1.70
2019-02-07T01:09:24.193Z,1.57
2019-02-07T01:13:40.680Z,1.63
2019-02-07T01:17:57.095Z,1.00
2019-02-07T01:22:13.862Z,1.80
2019-02-07T01:26:30.320Z,2.47
2019-02-07T01:30:46.745Z,2.60
2019-02-07T01:35:04.722Z,2.33
2019-02-07T01:39:21.133Z,2.17
2019-02-07T01:43:37.727Z,3.00
2019-02-07T01:47:54.167Z,1.60
2019-02-07T01:52:10.831Z,1.93
2019-02-07T01:56:27.249Z,1.40
2019-02-07T02:00:43.653Z,1.70
2019-02-07T02:05:00.336Z,2.27
2019-02-07T02:09:16.758Z,1.60
2019-02-07T02:13:34.304Z,1.50
2019-02-07T02:17:50.783Z,1.93
2019-02-07T02:22:07.545Z,0.97
2019-02-07T02:26:23.958Z,1.00
2019-02-07T02:30:40.676Z,1.40
2019-02-07T02:34:57.487Z,2.13
2019-02-07T02:39:13.934Z,1.90
2019-02-07T02:43:30.372Z,1.40
2019-02-07T02:47:47.190Z,1.53
2019-02-07T02:52:04.045Z,1.00
2019-02-07T02:56:20.447Z,1.80
2019-02-07T03:00:38.783Z,1.70
2019-02-07T03:05:06.118Z,1.60
2019-02-07T03:09:41.082Z,1.10
2019-02-07T03:14:16.097Z,1.00
2019-02-07T03:18:46.704Z,1.77
2019-02-07T03:23:15.534Z,1.37
2019-02-07T03:27:33.930Z,1.10
2019-02-07T03:31:52.310Z,3.07
2019-02-07T03:36:16.740Z,2.33
2019-02-07T03:40:53.651Z,1.63
2019-02-07T03:45:27.027Z,2.17
2019-02-07T03:49:51.700Z,2.60
2019-02-07T03:54:13.439Z,5.47
2019-02-07T03:58:50.039Z,2.57
2019-02-07T04:03:20.929Z,4.03
2019-02-07T04:07:51.630Z,4.50
2019-02-07T04:12:26.470Z,3.27
2019-02-07T04:16:44.809Z,2.53
2019-02-07T04:21:09.212Z,2.03
2019-02-07T04:25:33.585Z,2.13
2019-02-07T04:30:00.697Z,2.50
2019-02-07T04:34:21.772Z,2.77
2019-02-07T04:38:56.829Z,3.70
2019-02-07T04:43:21.300Z,4.03
2019-02-07T04:47:48.591Z,2.50
2019-02-07T04:52:16.166Z,2.77
2019-02-07T04:56:52.772Z,5.60
2019-02-07T05:01:26.582Z,6.50
2019-02-07T05:05:44.917Z,5.97
2019-02-07T05:10:18.598Z,2.53
2019-02-07T05:14:52.345Z,5.13
2019-02-07T05:19:16.364Z,9.63
2019-02-07T05:23:35.323Z,9.80
2019-02-07T05:27:53.658Z,5.67
2019-02-07T05:32:14.732Z,8.73
2019-02-07T05:36:45.380Z,7.40
2019-02-07T05:41:12.705Z,5.40
2019-02-07T05:45:57.257Z,6.87
2019-02-07T05:50:21.876Z,8.90
2019-02-07T05:54:57.328Z,3.33
2019-02-07T05:59:24.937Z,4.43
2019-02-07T06:03:46.272Z,5.23
2019-02-07T06:08:10.608Z,6.73
2019-02-07T06:12:31.673Z,7.87
2019-02-07T06:17:05.271Z,5.30
2019-02-07T06:21:38.956Z,4.50
2019-02-07T06:26:12.653Z,3.63
2019-02-07T06:30:37.065Z,3.70
2019-02-07T06:34:58.402Z,5.03
2019-02-07T06:39:19.970Z,9.93
2019-02-07T06:43:38.435Z,9.27
2019-02-07T06:48:08.776Z,11.87
2019-02-07T06:52:33.666Z,21.07
2019-02-07T06:56:58.290Z,15.47
2019-02-07T07:01:19.507Z,12.53
2019-02-07T07:05:54.552Z,11.67
2019-02-07T07:10:31.427Z,8.77
2019-02-07T07:15:06.323Z,12.70
2019-02-07T07:19:41.208Z,10.10
2019-02-07T07:24:17.723Z,12.63
2019-02-07T07:28:39.138Z,36.20
2019-02-07T07:33:14.437Z,27.83
2019-02-07T07:37:33.067Z,12.50
2019-02-07T07:42:01.029Z,13.83
2019-02-07T07:46:22.413Z,9.03
2019-02-07T07:50:49.791Z,5.27
2019-02-07T07:55:08.196Z,5.10
2019-02-07T07:59:32.595Z,4.10
2019-02-07T08:04:06.665Z,3.50
2019-02-07T08:08:27.966Z,3.77
2019-02-07T08:12:46.289Z,2.63
2019-02-07T08:17:20.286Z,5.40
2019-02-07T08:21:47.639Z,7.63
2019-02-07T08:26:21.455Z,10.53
2019-02-07T08:30:43.441Z,12.07
2019-02-07T08:35:18.305Z,10.70
2019-02-07T08:39:36.611Z,11.23
2019-02-07T08:43:54.923Z,13.33
2019-02-07T08:48:13.241Z,11.83
2019-02-07T08:52:48.537Z,13.23
2019-02-07T08:57:23.998Z,11.03
2019-02-07T09:01:45.336Z,6.97
2019-02-07T09:06:06.836Z,7.90
2019-02-07T09:10:28.153Z,10.90
2019-02-07T09:15:04.583Z,6.40
2019-02-07T09:19:35.186Z,7.33
2019-02-07T09:23:53.527Z,20.83
2019-02-07T09:28:12.187Z,18.20
2019-02-07T09:32:33.580Z,17.50
2019-02-07T09:36:51.911Z,17.33
2019-02-07T09:41:10.226Z,9.57
2019-02-07T09:45:28.556Z,11.10
2019-02-07T09:49:59.636Z,23.13
2019-02-07T09:54:30.180Z,11.90
2019-02-07T09:58:51.518Z,7.57
2019-02-07T10:03:21.994Z,4.77
2019-02-07T10:07:43.675Z,5.23
2019-02-07T10:12:01.974Z,6.90
2019-02-07T10:16:36.943Z,6.30
2019-02-07T10:21:12.159Z,7.47
2019-02-07T10:25:45.611Z,7.83
2019-02-07T10:30:06.723Z,7.00
2019-02-07T10:34:31.146Z,6.53
2019-02-07T10:39:01.681Z,5.67
2019-02-07T10:43:36.532Z,5.27
2019-02-07T10:48:00.802Z,8.33
2019-02-07T10:52:22.699Z,8.83
2019-02-07T10:56:49.982Z,5.73
2019-02-07T11:01:11.288Z,6.43
2019-02-07T11:05:35.672Z,6.70
2019-02-07T11:09:54.026Z,5.97
2019-02-07T11:14:18.373Z,6.03
2019-02-07T11:18:36.705Z,7.50
2019-02-07T11:23:07.308Z,6.57
2019-02-07T11:27:34.786Z,7.43
2019-02-07T11:31:53.746Z,8.70
2019-02-07T11:36:15.441Z,10.40
2019-02-07T11:40:50.573Z,12.47
2019-02-07T11:45:21.076Z,9.17
2019-02-07T11:49:57.794Z,11.73
2019-02-07T11:54:18.878Z,14.03
2019-02-07T11:58:40.196Z,14.33
2019-02-07T12:03:01.281Z,17.53
2019-02-07T12:07:22.875Z,15.60
2019-02-07T12:11:44.157Z,14.63
2019-02-07T12:16:17.633Z,14.20
2019-02-07T12:20:41.994Z,17.07
2019-02-07T12:25:00.395Z,15.23
2019-02-07T12:29:22.003Z,12.93
2019-02-07T12:33:40.327Z,13.93
2019-02-07T12:38:10.893Z,13.70
2019-02-07T12:42:46.003Z,9.00
2019-02-07T12:47:21.188Z,10.67
2019-02-07T12:51:54.835Z,12.53
2019-02-07T12:56:19.406Z,15.83
2019-02-07T13:00:37.730Z,15.13
2019-02-07T13:05:04.879Z,16.50
2019-02-07T13:09:26.480Z,17.73
2019-02-07T13:13:59.765Z,17.53
2019-02-07T13:18:20.827Z,20.17
2019-02-07T13:22:55.984Z,20.03
2019-02-07T13:27:14.258Z,16.13
2019-02-07T13:31:49.947Z,16.63
2019-02-07T13:36:14.469Z,17.43
2019-02-07T13:40:49.549Z,18.43
2019-02-07T13:45:32.159Z,21.73
2019-02-07T13:49:52.180Z,21.10
2019-02-07T13:54:19.558Z,20.77
2019-02-07T13:58:41.201Z,22.27
2019-02-07T14:03:05.560Z,20.60
2019-02-07T14:07:23.898Z,23.00
2019-02-07T14:11:42.206Z,23.80
2019-02-07T14:16:09.538Z,20.63
2019-02-07T14:20:34.902Z,20.57
2019-02-07T14:24:56.406Z,20.20
2019-02-07T14:29:14.727Z,19.40
2019-02-07T14:33:33.134Z,21.37
2019-02-07T14:38:00.634Z,23.87
2019-02-07T14:42:19.120Z,17.53
2019-02-07T14:46:51.651Z,20.97
2019-02-07T14:51:08.412Z,19.07
2019-02-07T14:55:24.830Z,19.13
2019-02-07T14:59:41.220Z,17.73
2019-02-07T15:03:57.952Z,15.00
2019-02-07T15:08:14.497Z,18.70
2019-02-07T15:12:30.913Z,17.13
2019-02-07T15:16:47.588Z,18.67
2019-02-07T15:21:04.129Z,18.67
2019-02-07T15:25:20.638Z,18.10
2019-02-07T15:29:37.061Z,22.63
2019-02-07T15:33:53.470Z,19.03
2019-02-07T15:38:11.098Z,21.33
2019-02-07T15:42:28.655Z,18.63
2019-02-07T15:46:45.077Z,18.63
2019-02-07T15:51:01.552Z,19.60
2019-02-07T15:55:18.363Z,21.47
2019-02-07T15:59:37.090Z,25.37
2019-02-07T16:03:55.877Z,24.93
2019-02-07T16:08:18.833Z,18.93
2019-02-07T16:12:39.209Z,23.33
2019-02-07T16:16:55.803Z,23.20
2019-02-07T16:21:14.486Z,25.33
2019-02-07T16:25:30.977Z,24.80
2019-02-07T16:29:49.827Z,21.90
2019-02-07T16:34:06.631Z,24.93
2019-02-07T16:38:23.607Z,25.93
2019-02-07T16:42:40.229Z,23.33
2019-02-07T16:46:57.112Z,29.00
2019-02-07T16:51:13.597Z,22.27
2019-02-07T16:55:30.365Z,27.10
2019-02-07T16:59:46.932Z,26.73
2019-02-07T17:04:05.344Z,23.20
2019-02-07T17:08:22.025Z,29.67
2019-02-07T17:12:38.922Z,28.50
2019-02-07T17:16:55.388Z,32.57
2019-02-07T17:21:12.893Z,30.20
2019-02-07T17:25:30.126Z,29.60
2019-02-07T17:29:46.610Z,33.00
2019-02-07T17:34:03.191Z,29.30
2019-02-07T17:38:19.639Z,36.37
2019-02-07T17:42:36.689Z,32.50
2019-02-07T17:46:53.310Z,34.23
2019-02-07T17:51:09.795Z,34.77
2019-02-07T17:55:26.317Z,40.17
2019-02-07T17:59:42.852Z,41.03
2019-02-07T18:03:59.458Z,36.30
2019-02-07T18:08:16.073Z,47.27
2019-02-07T18:12:33.423Z,39.30
2019-02-07T18:16:49.928Z,33.73
2019-02-07T18:21:08.210Z,36.33
2019-02-07T18:25:26.608Z,28.77
2019-02-07T18:29:43.066Z,32.87
2019-02-07T18:33:59.647Z,35.07
2019-02-07T18:38:18.054Z,37.43
2019-02-07T18:42:34.749Z,33.70
2019-02-07T18:46:52.390Z,38.80
2019-02-07T18:51:10.232Z,39.53
2019-02-07T18:55:27.928Z,36.47
2019-02-07T18:59:44.645Z,38.77
2019-02-07T19:04:01.313Z,33.43
2019-02-07T19:08:17.743Z,33.83
2019-02-07T19:12:34.261Z,39.97
2019-02-07T19:16:52.623Z,36.87
2019-02-07T19:21:10.576Z,36.90
2019-02-07T19:25:27.175Z,42.53
2019-02-07T19:29:44.018Z,39.60
2019-02-07T19:34:00.852Z,36.90
2019-02-07T19:38:17.343Z,55.10
2019-02-07T19:42:34.754Z,43.40
2019-02-07T19:46:51.898Z,53.63
2019-02-07T19:51:10.267Z,54.20
2019-02-07T19:55:30.159Z,47.07
2019-02-07T19:59:46.666Z,49.13
2019-02-07T20:04:03.177Z,55.47
2019-02-07T20:08:19.648Z,55.63
2019-02-07T20:12:36.502Z,50.23
2019-02-07T20:16:54.132Z,61.77
2019-02-07T20:21:10.585Z,55.47
2019-02-07T20:25:29.758Z,62.07
2019-02-07T20:29:47.192Z,61.07
2019-02-07T20:34:05.348Z,56.90
2019-02-07T20:38:21.862Z,54.37
2019-02-07T20:42:58.150Z,53.03
2019-02-07T20:47:14.732Z,51.37
2019-02-07T20:51:32.182Z,56.23
2019-02-07T20:55:48.714Z,50.27
2019-02-07T21:00:24.096Z,48.03
2019-02-07T21:04:40.598Z,45.77
2019-02-07T21:08:57.127Z,42.57
2019-02-07T21:13:13.718Z,37.43
2019-02-07T21:17:32.435Z,39.97
2019-02-07T21:21:49.087Z,32.87
2019-02-07T21:26:05.912Z,35.77
2019-02-07T21:30:25.046Z,46.10
2019-02-07T21:34:41.512Z,41.00
2019-02-07T21:38:58.021Z,41.73
2019-02-07T21:43:14.728Z,40.83
2019-02-07T21:47:31.166Z,38.87
2019-02-07T21:51:47.643Z,41.47
2019-02-07T21:56:04.166Z,37.27
2019-02-07T22:00:29.827Z,38.53
2019-02-07T22:04:46.596Z,35.63
2019-02-07T22:09:06.465Z,30.20
2019-02-07T22:13:22.937Z,39.20
2019-02-07T22:17:39.430Z,39.47
2019-02-07T22:21:56.004Z,32.87
2019-02-07T22:26:12.503Z,38.00
2019-02-07T22:30:33.807Z,33.43
2019-02-07T22:34:50.186Z,39.50
2019-02-07T22:39:06.829Z,37.03
2019-02-07T22:43:23.607Z,31.07
2019-02-07T22:47:40.275Z,35.60
2019-02-07T22:51:57.740Z,39.20
2019-02-07T22:56:14.479Z,34.57
2019-02-07T23:00:39.903Z,33.47
2019-02-07T23:04:56.404Z,36.20
2019-02-07T23:09:15.083Z,42.33
2019-02-07T23:13:31.572Z,37.90
2019-02-07T23:17:48.045Z,35.17
2019-02-07T23:22:04.501Z,44.20
2019-02-07T23:26:21.240Z,40.47
2019-02-07T23:30:37.853Z,43.13
2019-02-07T23:34:54.480Z,37.13
2019-02-07T23:39:11.265Z,44.10
2019-02-07T23:43:27.905Z,32.40
2019-02-07T23:47:44.432Z,35.70
2019-02-07T23:52:01.255Z,25.80
2019-02-07T23:56:18.154Z,20.27
